sensor_id;sensor_type;location;lat;lon;timestamp;temperature;humidity
52867;DHT22;38739;53.324;6.862;2022-10-17T00:00:26;12.20;99.90
52867;DHT22;38739;53.324;6.862;2022-10-17T00:02:54;12.20;99.90
52867;DHT22;38739;53.324;6.862;2022-10-17T00:05:20;12.10;99.90
52867;DHT22;38739;53.324;6.862;2022-10-17T00:07:46;12.10;99.90
52867;DHT22;38739;53.324;6.862;2022-10-17T00:10:12;12.10;99.90
52867;DHT22;38739;53.324;6.862;2022-10-17T00:12:38;12.10;99.90
52867;DHT22;38739;53.324;6.862;2022-10-17T00:15:05;12.10;99.90
52867;DHT22;38739;53.324;6.862;2022-10-17T00:17:32;12.10;99.90
52867;DHT22;38739;53.324;6.862;2022-10-17T00:19:59;12.10;99.90
52867;DHT22;38739;53.324;6.862;2022-10-17T00:22:25;12.10;99.90
52867;DHT22;38739;53.324;6.862;2022-10-17T00:24:51;12.10;99.90
52867;DHT22;38739;53.324;6.862;2022-10-17T00:27:17;12.10;99.90
52867;DHT22;38739;53.324;6.862;2022-10-17T00:29:50;12.10;99.90
52867;DHT22;38739;53.324;6.862;2022-10-17T00:32:16;12.10;99.90
52867;DHT22;38739;53.324;6.862;2022-10-17T00:34:42;12.10;99.90
52867;DHT22;38739;53.324;6.862;2022-10-17T00:37:07;12.10;99.90
52867;DHT22;38739;53.324;6.862;2022-10-17T00:39:33;12.20;99.90
52867;DHT22;38739;53.324;6.862;2022-10-17T00:41:59;12.20;99.90
52867;DHT22;38739;53.324;6.862;2022-10-17T00:47:01;12.20;99.90
52867;DHT22;38739;53.324;6.862;2022-10-17T00:49:31;12.30;99.90
52867;DHT22;38739;53.324;6.862;2022-10-17T00:52:18;12.30;99.90
52867;DHT22;38739;53.324;6.862;2022-10-17T00:54:48;12.30;99.90
52867;DHT22;38739;53.324;6.862;2022-10-17T00:57:15;12.40;99.90
52867;DHT22;38739;53.324;6.862;2022-10-17T00:59:46;12.40;99.90
52867;DHT22;38739;53.324;6.862;2022-10-17T01:02:16;12.40;99.90
52867;DHT22;38739;53.324;6.862;2022-10-17T01:04:45;12.40;99.90
52867;DHT22;38739;53.324;6.862;2022-10-17T01:07:12;12.30;99.90
52867;DHT22;38739;53.324;6.862;2022-10-17T01:09:38;12.30;99.90
52867;DHT22;38739;53.324;6.862;2022-10-17T01:16:21;12.40;99.90
52867;DHT22;38739;53.324;6.862;2022-10-17T01:21:24;12.40;99.90
52867;DHT22;38739;53.324;6.862;2022-10-17T01:24:17;12.40;99.90
52867;DHT22;38739;53.324;6.862;2022-10-17T01:32:44;12.50;99.90
52867;DHT22;38739;53.324;6.862;2022-10-17T01:35:36;12.50;99.90
52867;DHT22;38739;53.324;6.862;2022-10-17T01:38:11;12.50;99.90
52867;DHT22;38739;53.324;6.862;2022-10-17T01:40:48;12.60;99.90
52867;DHT22;38739;53.324;6.862;2022-10-17T01:43:30;12.60;99.90
52867;DHT22;38739;53.324;6.862;2022-10-17T01:46:02;12.70;99.90
52867;DHT22;38739;53.324;6.862;2022-10-17T01:48:34;12.70;99.90
52867;DHT22;38739;53.324;6.862;2022-10-17T01:51:35;12.70;99.90
52867;DHT22;38739;53.324;6.862;2022-10-17T01:54:24;12.70;99.90
52867;DHT22;38739;53.324;6.862;2022-10-17T01:56:57;12.70;99.90
52867;DHT22;38739;53.324;6.862;2022-10-17T01:59:27;12.80;99.90
52867;DHT22;38739;53.324;6.862;2022-10-17T02:01:54;12.80;99.90
52867;DHT22;38739;53.324;6.862;2022-10-17T02:04:22;12.80;99.90
52867;DHT22;38739;53.324;6.862;2022-10-17T02:06:48;12.90;99.90
52867;DHT22;38739;53.324;6.862;2022-10-17T02:09:22;12.90;99.90
52867;DHT22;38739;53.324;6.862;2022-10-17T02:17:18;12.90;99.90
52867;DHT22;38739;53.324;6.862;2022-10-17T02:23:23;12.90;99.90
52867;DHT22;38739;53.324;6.862;2022-10-17T02:28:43;12.90;99.90
52867;DHT22;38739;53.324;6.862;2022-10-17T02:31:19;12.90;99.90
52867;DHT22;38739;53.324;6.862;2022-10-17T02:33:57;12.90;99.90
52867;DHT22;38739;53.324;6.862;2022-10-17T02:36:31;12.90;99.90
52867;DHT22;38739;53.324;6.862;2022-10-17T02:39:00;12.90;99.90
52867;DHT22;38739;53.324;6.862;2022-10-17T02:41:27;12.90;99.90
52867;DHT22;38739;53.324;6.862;2022-10-17T02:43:54;12.80;99.90
52867;DHT22;38739;53.324;6.862;2022-10-17T02:46:22;12.80;99.90
52867;DHT22;38739;53.324;6.862;2022-10-17T02:49:02;12.80;99.90
52867;DHT22;38739;53.324;6.862;2022-10-17T02:51:53;12.80;99.90
52867;DHT22;38739;53.324;6.862;2022-10-17T02:54:30;12.80;99.90
52867;DHT22;38739;53.324;6.862;2022-10-17T02:57:04;12.80;99.90
52867;DHT22;38739;53.324;6.862;2022-10-17T02:59:33;12.80;99.90
52867;DHT22;38739;53.324;6.862;2022-10-17T03:02:05;12.70;99.90
52867;DHT22;38739;53.324;6.862;2022-10-17T03:04:31;12.70;99.90
52867;DHT22;38739;53.324;6.862;2022-10-17T03:06:57;12.70;99.90
52867;DHT22;38739;53.324;6.862;2022-10-17T03:09:22;12.70;99.90
52867;DHT22;38739;53.324;6.862;2022-10-17T03:11:48;12.70;99.90
52867;DHT22;38739;53.324;6.862;2022-10-17T03:14:14;12.70;99.90
52867;DHT22;38739;53.324;6.862;2022-10-17T03:16:39;12.60;99.90
52867;DHT22;38739;53.324;6.862;2022-10-17T03:19:05;12.60;99.90
52867;DHT22;38739;53.324;6.862;2022-10-17T03:21:32;12.60;99.90
52867;DHT22;38739;53.324;6.862;2022-10-17T03:23:57;12.60;99.90
52867;DHT22;38739;53.324;6.862;2022-10-17T03:26:23;12.60;99.90
52867;DHT22;38739;53.324;6.862;2022-10-17T03:28:49;12.60;99.90
52867;DHT22;38739;53.324;6.862;2022-10-17T03:31:16;12.60;99.90
52867;DHT22;38739;53.324;6.862;2022-10-17T03:33:42;12.60;99.90
52867;DHT22;38739;53.324;6.862;2022-10-17T03:36:17;12.60;99.90
52867;DHT22;38739;53.324;6.862;2022-10-17T03:38:44;12.60;99.90
52867;DHT22;38739;53.324;6.862;2022-10-17T03:41:10;12.60;99.90
52867;DHT22;38739;53.324;6.862;2022-10-17T03:43:36;12.60;99.90
52867;DHT22;38739;53.324;6.862;2022-10-17T03:46:02;12.60;99.90
52867;DHT22;38739;53.324;6.862;2022-10-17T03:48:29;12.60;99.90
52867;DHT22;38739;53.324;6.862;2022-10-17T03:51:04;12.60;99.90
52867;DHT22;38739;53.324;6.862;2022-10-17T03:53:30;12.60;99.90
52867;DHT22;38739;53.324;6.862;2022-10-17T03:56:07;12.60;99.90
52867;DHT22;38739;53.324;6.862;2022-10-17T03:58:33;12.60;99.90
52867;DHT22;38739;53.324;6.862;2022-10-17T04:01:05;12.50;99.90
52867;DHT22;38739;53.324;6.862;2022-10-17T04:03:31;12.60;99.90
52867;DHT22;38739;53.324;6.862;2022-10-17T04:05:58;12.60;99.90
52867;DHT22;38739;53.324;6.862;2022-10-17T04:08:25;12.50;99.90
52867;DHT22;38739;53.324;6.862;2022-10-17T04:10:52;12.50;99.90
52867;DHT22;38739;53.324;6.862;2022-10-17T04:13:17;12.50;99.90
52867;DHT22;38739;53.324;6.862;2022-10-17T04:15:57;12.50;99.90
52867;DHT22;38739;53.324;6.862;2022-10-17T04:18:23;12.50;99.90
52867;DHT22;38739;53.324;6.862;2022-10-17T04:20:50;12.50;99.90
52867;DHT22;38739;53.324;6.862;2022-10-17T04:23:16;12.50;99.90
52867;DHT22;38739;53.324;6.862;2022-10-17T04:25:42;12.40;99.90
52867;DHT22;38739;53.324;6.862;2022-10-17T04:28:07;12.40;99.90
52867;DHT22;38739;53.324;6.862;2022-10-17T04:30:33;12.40;99.90
52867;DHT22;38739;53.324;6.862;2022-10-17T04:32:59;12.40;99.90
52867;DHT22;38739;53.324;6.862;2022-10-17T04:35:25;12.40;99.90
52867;DHT22;38739;53.324;6.862;2022-10-17T04:37:50;12.40;99.90
52867;DHT22;38739;53.324;6.862;2022-10-17T04:40:16;12.40;99.90
52867;DHT22;38739;53.324;6.862;2022-10-17T04:42:42;12.40;99.90
52867;DHT22;38739;53.324;6.862;2022-10-17T04:45:11;12.40;99.90
52867;DHT22;38739;53.324;6.862;2022-10-17T04:47:36;12.40;99.90
52867;DHT22;38739;53.324;6.862;2022-10-17T04:50:03;12.40;99.90
52867;DHT22;38739;53.324;6.862;2022-10-17T04:52:29;12.40;99.90
52867;DHT22;38739;53.324;6.862;2022-10-17T04:54:55;12.40;99.90
52867;DHT22;38739;53.324;6.862;2022-10-17T04:57:20;12.40;99.90
52867;DHT22;38739;53.324;6.862;2022-10-17T04:59:46;12.40;99.90
52867;DHT22;38739;53.324;6.862;2022-10-17T05:02:12;12.40;99.90
52867;DHT22;38739;53.324;6.862;2022-10-17T05:04:38;12.40;99.90
52867;DHT22;38739;53.324;6.862;2022-10-17T05:07:04;12.40;99.90
52867;DHT22;38739;53.324;6.862;2022-10-17T05:09:29;12.40;99.90
52867;DHT22;38739;53.324;6.862;2022-10-17T05:11:55;12.40;99.90
52867;DHT22;38739;53.324;6.862;2022-10-17T05:14:21;12.40;99.90
52867;DHT22;38739;53.324;6.862;2022-10-17T05:16:46;12.40;99.90
52867;DHT22;38739;53.324;6.862;2022-10-17T05:19:12;12.40;99.90
52867;DHT22;38739;53.324;6.862;2022-10-17T05:21:38;12.40;99.90
52867;DHT22;38739;53.324;6.862;2022-10-17T05:24:08;12.50;99.90
52867;DHT22;38739;53.324;6.862;2022-10-17T05:26:34;12.50;99.90
52867;DHT22;38739;53.324;6.862;2022-10-17T05:29:00;12.50;99.90
52867;DHT22;38739;53.324;6.862;2022-10-17T05:31:30;12.50;99.90
52867;DHT22;38739;53.324;6.862;2022-10-17T05:33:59;12.50;99.90
52867;DHT22;38739;53.324;6.862;2022-10-17T05:36:25;12.60;99.90
52867;DHT22;38739;53.324;6.862;2022-10-17T05:38:51;12.60;99.90
52867;DHT22;38739;53.324;6.862;2022-10-17T05:41:18;12.60;99.90
52867;DHT22;38739;53.324;6.862;2022-10-17T05:43:43;12.60;99.90
52867;DHT22;38739;53.324;6.862;2022-10-17T05:46:09;12.70;99.90
52867;DHT22;38739;53.324;6.862;2022-10-17T05:48:35;12.70;99.90
52867;DHT22;38739;53.324;6.862;2022-10-17T05:51:05;12.70;99.90
52867;DHT22;38739;53.324;6.862;2022-10-17T05:53:33;12.70;99.90
52867;DHT22;38739;53.324;6.862;2022-10-17T05:56:01;12.80;99.90
52867;DHT22;38739;53.324;6.862;2022-10-17T05:58:27;12.70;99.90
52867;DHT22;38739;53.324;6.862;2022-10-17T06:00:57;12.80;99.90
52867;DHT22;38739;53.324;6.862;2022-10-17T06:03:23;12.80;99.90
52867;DHT22;38739;53.324;6.862;2022-10-17T06:05:49;12.80;99.90
52867;DHT22;38739;53.324;6.862;2022-10-17T06:08:16;12.90;99.90
52867;DHT22;38739;53.324;6.862;2022-10-17T06:10:42;12.90;99.90
52867;DHT22;38739;53.324;6.862;2022-10-17T06:13:07;12.90;99.90
52867;DHT22;38739;53.324;6.862;2022-10-17T06:15:33;13.00;99.90
52867;DHT22;38739;53.324;6.862;2022-10-17T06:17:59;13.00;99.90
52867;DHT22;38739;53.324;6.862;2022-10-17T06:20:24;13.00;99.90
52867;DHT22;38739;53.324;6.862;2022-10-17T06:22:50;13.00;99.90
52867;DHT22;38739;53.324;6.862;2022-10-17T06:25:16;13.00;99.90
52867;DHT22;38739;53.324;6.862;2022-10-17T06:27:41;13.10;99.90
52867;DHT22;38739;53.324;6.862;2022-10-17T06:30:07;13.10;99.90
52867;DHT22;38739;53.324;6.862;2022-10-17T06:32:33;13.10;99.90
52867;DHT22;38739;53.324;6.862;2022-10-17T06:34:59;13.20;99.90
52867;DHT22;38739;53.324;6.862;2022-10-17T06:37:24;13.20;99.90
52867;DHT22;38739;53.324;6.862;2022-10-17T06:39:50;13.20;99.90
52867;DHT22;38739;53.324;6.862;2022-10-17T06:42:16;13.30;99.90
52867;DHT22;38739;53.324;6.862;2022-10-17T06:44:41;13.30;99.90
52867;DHT22;38739;53.324;6.862;2022-10-17T06:47:08;13.30;99.90
52867;DHT22;38739;53.324;6.862;2022-10-17T06:49:34;13.30;99.90
52867;DHT22;38739;53.324;6.862;2022-10-17T06:52:00;13.40;99.90
52867;DHT22;38739;53.324;6.862;2022-10-17T06:54:26;13.40;99.90
52867;DHT22;38739;53.324;6.862;2022-10-17T06:56:52;13.40;99.90
52867;DHT22;38739;53.324;6.862;2022-10-17T06:59:18;13.40;99.90
52867;DHT22;38739;53.324;6.862;2022-10-17T07:01:43;13.50;99.90
52867;DHT22;38739;53.324;6.862;2022-10-17T07:04:09;13.50;99.90
52867;DHT22;38739;53.324;6.862;2022-10-17T07:06:35;13.50;99.90
52867;DHT22;38739;53.324;6.862;2022-10-17T07:09:01;13.60;99.90
52867;DHT22;38739;53.324;6.862;2022-10-17T07:11:27;13.60;99.90
52867;DHT22;38739;53.324;6.862;2022-10-17T07:13:53;13.60;99.90
52867;DHT22;38739;53.324;6.862;2022-10-17T07:16:19;13.70;99.90
52867;DHT22;38739;53.324;6.862;2022-10-17T07:18:48;13.70;99.90
52867;DHT22;38739;53.324;6.862;2022-10-17T07:21:13;13.80;99.90
52867;DHT22;38739;53.324;6.862;2022-10-17T07:23:39;13.80;99.90
52867;DHT22;38739;53.324;6.862;2022-10-17T07:26:09;13.90;99.90
52867;DHT22;38739;53.324;6.862;2022-10-17T07:28:39;13.90;99.90
52867;DHT22;38739;53.324;6.862;2022-10-17T07:31:10;14.00;99.90
52867;DHT22;38739;53.324;6.862;2022-10-17T07:33:37;14.10;99.90
52867;DHT22;38739;53.324;6.862;2022-10-17T07:36:04;14.10;99.90
52867;DHT22;38739;53.324;6.862;2022-10-17T07:38:30;14.30;99.90
52867;DHT22;38739;53.324;6.862;2022-10-17T07:40:57;14.30;99.90
52867;DHT22;38739;53.324;6.862;2022-10-17T07:43:24;14.40;99.90
52867;DHT22;38739;53.324;6.862;2022-10-17T07:45:51;14.50;99.90
52867;DHT22;38739;53.324;6.862;2022-10-17T07:48:17;14.60;99.90
52867;DHT22;38739;53.324;6.862;2022-10-17T07:50:43;14.60;99.90
52867;DHT22;38739;53.324;6.862;2022-10-17T07:53:09;14.70;99.90
52867;DHT22;38739;53.324;6.862;2022-10-17T07:55:37;14.80;99.90
52867;DHT22;38739;53.324;6.862;2022-10-17T07:58:03;14.90;99.90
52867;DHT22;38739;53.324;6.862;2022-10-17T08:00:28;14.90;99.90
52867;DHT22;38739;53.324;6.862;2022-10-17T08:02:54;15.00;99.90
52867;DHT22;38739;53.324;6.862;2022-10-17T08:05:20;15.10;99.90
52867;DHT22;38739;53.324;6.862;2022-10-17T08:07:46;15.10;99.90
52867;DHT22;38739;53.324;6.862;2022-10-17T08:10:13;15.20;99.90
52867;DHT22;38739;53.324;6.862;2022-10-17T08:12:39;15.20;99.90
52867;DHT22;38739;53.324;6.862;2022-10-17T08:15:06;15.30;99.90
52867;DHT22;38739;53.324;6.862;2022-10-17T08:17:34;15.40;99.90
52867;DHT22;38739;53.324;6.862;2022-10-17T08:20:00;15.50;99.90
52867;DHT22;38739;53.324;6.862;2022-10-17T08:22:26;15.70;99.90
52867;DHT22;38739;53.324;6.862;2022-10-17T08:24:52;15.80;99.90
52867;DHT22;38739;53.324;6.862;2022-10-17T08:27:17;15.80;99.90
52867;DHT22;38739;53.324;6.862;2022-10-17T08:29:48;15.90;99.90
52867;DHT22;38739;53.324;6.862;2022-10-17T08:32:18;16.00;99.90
52867;DHT22;38739;53.324;6.862;2022-10-17T08:34:44;16.00;99.90
52867;DHT22;38739;53.324;6.862;2022-10-17T08:37:10;16.10;99.90
52867;DHT22;38739;53.324;6.862;2022-10-17T08:39:39;16.20;99.90
52867;DHT22;38739;53.324;6.862;2022-10-17T08:42:12;16.20;99.90
52867;DHT22;38739;53.324;6.862;2022-10-17T08:47:27;16.30;99.90
52867;DHT22;38739;53.324;6.862;2022-10-17T08:49:57;16.30;99.90
52867;DHT22;38739;53.324;6.862;2022-10-17T08:54:52;16.40;99.90
52867;DHT22;38739;53.324;6.862;2022-10-17T08:57:18;16.50;99.90
52867;DHT22;38739;53.324;6.862;2022-10-17T08:59:44;16.60;99.90
52867;DHT22;38739;53.324;6.862;2022-10-17T09:11:10;16.80;99.90
52867;DHT22;38739;53.324;6.862;2022-10-17T09:13:39;16.80;99.90
52867;DHT22;38739;53.324;6.862;2022-10-17T09:16:44;16.90;99.90
52867;DHT22;38739;53.324;6.862;2022-10-17T09:19:29;16.90;99.90
52867;DHT22;38739;53.324;6.862;2022-10-17T09:22:00;16.90;99.90
52867;DHT22;38739;53.324;6.862;2022-10-17T09:24:41;16.90;99.90
52867;DHT22;38739;53.324;6.862;2022-10-17T09:29:51;16.90;99.90
52867;DHT22;38739;53.324;6.862;2022-10-17T09:32:21;16.90;99.90
52867;DHT22;38739;53.324;6.862;2022-10-17T09:34:48;17.00;99.90
52867;DHT22;38739;53.324;6.862;2022-10-17T09:37:15;17.00;99.90
52867;DHT22;38739;53.324;6.862;2022-10-17T09:39:42;17.00;99.90
52867;DHT22;38739;53.324;6.862;2022-10-17T09:42:13;17.00;99.90
52867;DHT22;38739;53.324;6.862;2022-10-17T09:50:26;17.00;99.90
52867;DHT22;38739;53.324;6.862;2022-10-17T09:52:53;17.00;99.90
52867;DHT22;38739;53.324;6.862;2022-10-17T09:55:21;17.00;99.90
52867;DHT22;38739;53.324;6.862;2022-10-17T09:57:57;17.00;99.90
52867;DHT22;38739;53.324;6.862;2022-10-17T10:00:32;17.00;99.90
52867;DHT22;38739;53.324;6.862;2022-10-17T10:03:24;17.10;99.90
52867;DHT22;38739;53.324;6.862;2022-10-17T10:08:30;17.10;99.90
52867;DHT22;38739;53.324;6.862;2022-10-17T10:11:07;17.10;99.90
52867;DHT22;38739;53.324;6.862;2022-10-17T10:13:33;17.10;99.90
52867;DHT22;38739;53.324;6.862;2022-10-17T10:18:43;17.10;99.90
52867;DHT22;38739;53.324;6.862;2022-10-17T10:23:36;17.10;99.90
52867;DHT22;38739;53.324;6.862;2022-10-17T10:26:37;17.00;99.90
52867;DHT22;38739;53.324;6.862;2022-10-17T10:31:52;17.00;99.90
52867;DHT22;38739;53.324;6.862;2022-10-17T10:34:26;16.90;99.90
52867;DHT22;38739;53.324;6.862;2022-10-17T10:37:13;16.80;99.90
52867;DHT22;38739;53.324;6.862;2022-10-17T10:39:47;16.80;99.90
52867;DHT22;38739;53.324;6.862;2022-10-17T10:42:24;16.80;99.90
52867;DHT22;38739;53.324;6.862;2022-10-17T10:44:53;16.80;99.90
52867;DHT22;38739;53.324;6.862;2022-10-17T10:47:29;16.70;99.90
52867;DHT22;38739;53.324;6.862;2022-10-17T10:50:15;16.70;99.90
52867;DHT22;38739;53.324;6.862;2022-10-17T10:53:02;16.70;99.90
52867;DHT22;38739;53.324;6.862;2022-10-17T10:55:33;16.70;99.90
52867;DHT22;38739;53.324;6.862;2022-10-17T10:58:17;16.70;99.90
52867;DHT22;38739;53.324;6.862;2022-10-17T11:00:45;16.60;99.90
52867;DHT22;38739;53.324;6.862;2022-10-17T11:03:20;16.70;99.90
52867;DHT22;38739;53.324;6.862;2022-10-17T11:05:59;16.60;99.90
52867;DHT22;38739;53.324;6.862;2022-10-17T11:08:39;16.60;99.90
52867;DHT22;38739;53.324;6.862;2022-10-17T11:11:20;16.60;99.90
52867;DHT22;38739;53.324;6.862;2022-10-17T11:14:22;16.60;99.90
52867;DHT22;38739;53.324;6.862;2022-10-17T11:19:54;16.60;99.90
52867;DHT22;38739;53.324;6.862;2022-10-17T11:22:30;16.60;99.90
52867;DHT22;38739;53.324;6.862;2022-10-17T11:25:03;16.60;99.90
52867;DHT22;38739;53.324;6.862;2022-10-17T11:27:30;16.60;99.90
52867;DHT22;38739;53.324;6.862;2022-10-17T11:29:57;16.60;99.90
52867;DHT22;38739;53.324;6.862;2022-10-17T11:32:38;16.60;99.90
52867;DHT22;38739;53.324;6.862;2022-10-17T11:40:46;16.70;99.90
52867;DHT22;38739;53.324;6.862;2022-10-17T11:43:52;16.70;99.90
52867;DHT22;38739;53.324;6.862;2022-10-17T11:46:21;16.70;99.90
52867;DHT22;38739;53.324;6.862;2022-10-17T11:51:30;16.70;99.90
52867;DHT22;38739;53.324;6.862;2022-10-17T11:56:41;16.70;99.90
52867;DHT22;38739;53.324;6.862;2022-10-17T11:59:43;16.60;99.90
52867;DHT22;38739;53.324;6.862;2022-10-17T12:02:40;16.70;99.90
52867;DHT22;38739;53.324;6.862;2022-10-17T12:15:53;16.60;99.90
52867;DHT22;38739;53.324;6.862;2022-10-17T12:18:23;16.50;99.90
52867;DHT22;38739;53.324;6.862;2022-10-17T12:20:59;16.60;99.90
52867;DHT22;38739;53.324;6.862;2022-10-17T12:23:30;16.60;99.90
52867;DHT22;38739;53.324;6.862;2022-10-17T12:26:00;16.60;99.90
52867;DHT22;38739;53.324;6.862;2022-10-17T12:31:06;16.70;99.90
52867;DHT22;38739;53.324;6.862;2022-10-17T12:33:38;16.80;99.90
52867;DHT22;38739;53.324;6.862;2022-10-17T12:38:42;16.80;99.90
52867;DHT22;38739;53.324;6.862;2022-10-17T12:41:08;16.80;99.90
52867;DHT22;38739;53.324;6.862;2022-10-17T12:43:42;16.80;99.90
52867;DHT22;38739;53.324;6.862;2022-10-17T12:46:08;16.80;99.90
52867;DHT22;38739;53.324;6.862;2022-10-17T12:51:06;16.90;99.90
52867;DHT22;38739;53.324;6.862;2022-10-17T12:54:11;17.00;99.90
52867;DHT22;38739;53.324;6.862;2022-10-17T12:56:43;17.10;99.90
52867;DHT22;38739;53.324;6.862;2022-10-17T12:59:21;17.10;99.90
52867;DHT22;38739;53.324;6.862;2022-10-17T13:01:52;17.10;99.90
52867;DHT22;38739;53.324;6.862;2022-10-17T13:04:20;17.10;99.90
52867;DHT22;38739;53.324;6.862;2022-10-17T13:06:48;17.20;99.90
52867;DHT22;38739;53.324;6.862;2022-10-17T13:09:21;17.10;99.90
52867;DHT22;38739;53.324;6.862;2022-10-17T13:11:49;17.20;99.90
52867;DHT22;38739;53.324;6.862;2022-10-17T13:14:17;17.20;99.90
52867;DHT22;38739;53.324;6.862;2022-10-17T13:16:54;17.20;99.90
52867;DHT22;38739;53.324;6.862;2022-10-17T13:19:39;17.20;99.90
52867;DHT22;38739;53.324;6.862;2022-10-17T13:22:23;17.20;99.90
52867;DHT22;38739;53.324;6.862;2022-10-17T13:24:51;17.10;99.90
52867;DHT22;38739;53.324;6.862;2022-10-17T13:27:29;17.10;99.90
52867;DHT22;38739;53.324;6.862;2022-10-17T13:29:57;17.10;99.90
52867;DHT22;38739;53.324;6.862;2022-10-17T13:32:25;17.10;99.90
52867;DHT22;38739;53.324;6.862;2022-10-17T13:35:11;17.10;99.90
52867;DHT22;38739;53.324;6.862;2022-10-17T13:37:39;17.00;99.90
52867;DHT22;38739;53.324;6.862;2022-10-17T13:40:06;17.00;99.90
52867;DHT22;38739;53.324;6.862;2022-10-17T13:42:40;17.00;99.90
52867;DHT22;38739;53.324;6.862;2022-10-17T13:45:19;16.90;99.90
52867;DHT22;38739;53.324;6.862;2022-10-17T13:47:47;16.80;99.90
52867;DHT22;38739;53.324;6.862;2022-10-17T13:50:36;16.80;99.90
52867;DHT22;38739;53.324;6.862;2022-10-17T13:56:20;16.70;99.90
52867;DHT22;38739;53.324;6.862;2022-10-17T13:58:48;16.70;99.90
52867;DHT22;38739;53.324;6.862;2022-10-17T14:01:15;16.60;99.90
52867;DHT22;38739;53.324;6.862;2022-10-17T14:03:45;16.60;99.90
52867;DHT22;38739;53.324;6.862;2022-10-17T14:08:57;16.50;99.90
52867;DHT22;38739;53.324;6.862;2022-10-17T14:11:35;16.40;99.90
52867;DHT22;38739;53.324;6.862;2022-10-17T14:14:03;16.50;99.90
52867;DHT22;38739;53.324;6.862;2022-10-17T14:16:38;16.40;99.90
52867;DHT22;38739;53.324;6.862;2022-10-17T14:19:06;16.40;99.90
52867;DHT22;38739;53.324;6.862;2022-10-17T14:21:39;16.40;99.90
52867;DHT22;38739;53.324;6.862;2022-10-17T14:24:31;16.40;99.90
52867;DHT22;38739;53.324;6.862;2022-10-17T14:26:59;16.40;99.90
52867;DHT22;38739;53.324;6.862;2022-10-17T14:29:31;16.40;99.90
52867;DHT22;38739;53.324;6.862;2022-10-17T14:32:05;16.40;99.90
52867;DHT22;38739;53.324;6.862;2022-10-17T14:34:40;16.40;99.90
52867;DHT22;38739;53.324;6.862;2022-10-17T14:37:11;16.30;99.90
52867;DHT22;38739;53.324;6.862;2022-10-17T14:39:38;16.30;99.90
52867;DHT22;38739;53.324;6.862;2022-10-17T14:42:04;16.30;99.90
52867;DHT22;38739;53.324;6.862;2022-10-17T14:44:31;16.30;99.90
52867;DHT22;38739;53.324;6.862;2022-10-17T14:47:16;16.30;99.90
52867;DHT22;38739;53.324;6.862;2022-10-17T14:49:48;16.20;99.90
52867;DHT22;38739;53.324;6.862;2022-10-17T14:54:47;16.20;99.90
52867;DHT22;38739;53.324;6.862;2022-10-17T14:57:25;16.10;99.90
52867;DHT22;38739;53.324;6.862;2022-10-17T14:59:51;16.10;99.90
52867;DHT22;38739;53.324;6.862;2022-10-17T15:02:17;16.10;99.90
52867;DHT22;38739;53.324;6.862;2022-10-17T15:04:43;16.00;99.90
52867;DHT22;38739;53.324;6.862;2022-10-17T15:07:14;16.00;99.90
52867;DHT22;38739;53.324;6.862;2022-10-17T15:09:40;16.00;99.90
52867;DHT22;38739;53.324;6.862;2022-10-17T15:12:31;15.90;99.90
52867;DHT22;38739;53.324;6.862;2022-10-17T15:14:57;15.90;99.90
52867;DHT22;38739;53.324;6.862;2022-10-17T15:17:30;15.90;99.90
52867;DHT22;38739;53.324;6.862;2022-10-17T15:19:57;15.90;99.90
52867;DHT22;38739;53.324;6.862;2022-10-17T15:22:23;15.80;99.90
52867;DHT22;38739;53.324;6.862;2022-10-17T15:24:49;15.80;99.90
52867;DHT22;38739;53.324;6.862;2022-10-17T15:27:21;15.80;99.90
52867;DHT22;38739;53.324;6.862;2022-10-17T15:29:47;15.80;99.90
52867;DHT22;38739;53.324;6.862;2022-10-17T15:32:14;15.80;99.90
52867;DHT22;38739;53.324;6.862;2022-10-17T15:34:40;15.80;99.90
52867;DHT22;38739;53.324;6.862;2022-10-17T15:37:09;15.80;99.90
52867;DHT22;38739;53.324;6.862;2022-10-17T15:39:38;15.80;99.90
52867;DHT22;38739;53.324;6.862;2022-10-17T15:42:08;15.80;99.90
52867;DHT22;38739;53.324;6.862;2022-10-17T15:44:36;15.80;99.90
52867;DHT22;38739;53.324;6.862;2022-10-17T15:47:01;15.80;99.90
52867;DHT22;38739;53.324;6.862;2022-10-17T15:49:27;15.80;99.90
52867;DHT22;38739;53.324;6.862;2022-10-17T15:51:53;15.80;99.90
52867;DHT22;38739;53.324;6.862;2022-10-17T15:54:18;15.70;99.90
52867;DHT22;38739;53.324;6.862;2022-10-17T15:56:52;15.70;99.90
52867;DHT22;38739;53.324;6.862;2022-10-17T15:59:21;15.70;99.90
52867;DHT22;38739;53.324;6.862;2022-10-17T16:01:49;15.60;99.90
52867;DHT22;38739;53.324;6.862;2022-10-17T16:04:15;15.60;99.90
52867;DHT22;38739;53.324;6.862;2022-10-17T16:06:42;15.60;99.90
52867;DHT22;38739;53.324;6.862;2022-10-17T16:09:08;15.50;99.90
52867;DHT22;38739;53.324;6.862;2022-10-17T16:11:37;15.50;99.90
52867;DHT22;38739;53.324;6.862;2022-10-17T16:14:06;15.50;99.90
52867;DHT22;38739;53.324;6.862;2022-10-17T16:16:32;15.40;99.90
52867;DHT22;38739;53.324;6.862;2022-10-17T16:18:58;15.40;99.90
52867;DHT22;38739;53.324;6.862;2022-10-17T16:21:32;15.40;99.90
52867;DHT22;38739;53.324;6.862;2022-10-17T16:23:58;15.40;99.90
52867;DHT22;38739;53.324;6.862;2022-10-17T16:26:24;15.30;99.90
52867;DHT22;38739;53.324;6.862;2022-10-17T16:28:50;15.30;99.90
52867;DHT22;38739;53.324;6.862;2022-10-17T16:31:22;15.30;99.90
52867;DHT22;38739;53.324;6.862;2022-10-17T16:33:49;15.20;99.90
52867;DHT22;38739;53.324;6.862;2022-10-17T16:36:15;15.20;99.90
52867;DHT22;38739;53.324;6.862;2022-10-17T16:38:41;15.20;99.90
52867;DHT22;38739;53.324;6.862;2022-10-17T16:41:33;15.10;99.90
52867;DHT22;38739;53.324;6.862;2022-10-17T16:44:02;15.10;99.90
52867;DHT22;38739;53.324;6.862;2022-10-17T16:46:29;15.10;99.90
52867;DHT22;38739;53.324;6.862;2022-10-17T16:48:56;15.10;99.90
52867;DHT22;38739;53.324;6.862;2022-10-17T16:51:22;15.00;99.90
52867;DHT22;38739;53.324;6.862;2022-10-17T16:53:49;15.00;99.90
52867;DHT22;38739;53.324;6.862;2022-10-17T16:56:19;15.00;99.90
52867;DHT22;38739;53.324;6.862;2022-10-17T16:58:46;14.90;99.90
52867;DHT22;38739;53.324;6.862;2022-10-17T17:01:17;14.90;99.90
52867;DHT22;38739;53.324;6.862;2022-10-17T17:03:44;14.90;99.90
52867;DHT22;38739;53.324;6.862;2022-10-17T17:06:16;14.90;99.90
52867;DHT22;38739;53.324;6.862;2022-10-17T17:08:42;14.80;99.90
52867;DHT22;38739;53.324;6.862;2022-10-17T17:11:10;14.80;99.90
52867;DHT22;38739;53.324;6.862;2022-10-17T17:13:37;14.80;99.90
52867;DHT22;38739;53.324;6.862;2022-10-17T17:16:05;14.80;99.90
52867;DHT22;38739;53.324;6.862;2022-10-17T17:18:32;14.80;99.90
52867;DHT22;38739;53.324;6.862;2022-10-17T17:21:02;14.70;99.90
52867;DHT22;38739;53.324;6.862;2022-10-17T17:23:29;14.70;99.90
52867;DHT22;38739;53.324;6.862;2022-10-17T17:25:59;14.70;99.90
52867;DHT22;38739;53.324;6.862;2022-10-17T17:28:26;14.60;99.90